Time;durP1;ratioP1;P1;durP2;ratioP2;P2;SDS_P1;SDS_P2;PMS_P1;PMS_P2;Temp;Humidity;BMP_temperature;BMP_pressure;BME280_temperature;BME280_humidity;BME280_pressure;Samples;Min_cycle;Max_cycle;Signal;HPM_P1;HPM_P2
2021/10/12 00:00:57;;;;;;;2.88;1.00;;;;;;;8.73;85.08;100786.72;6392734;27;20280;-72
2021/10/12 00:04:02;;;;;;;1.30;1.20;;;;;;;8.60;84.65;100787.50;6392377;27;20220;-72
2021/10/12 00:07:08;;;;;;;1.20;1.20;;;;;;;8.60;84.90;100782.06;6391731;27;20181;-72
2021/10/12 00:10:13;;;;;;;1.48;1.48;;;;;;;8.49;85.24;100785.41;6392915;27;20188;-71
2021/10/12 00:13:18;;;;;;;3.50;1.17;;;;;;;8.55;85.44;100783.75;6392519;27;20193;-72
2021/10/12 00:16:23;;;;;;;1.55;1.30;;;;;;;8.59;85.10;100780.41;6391463;27;20500;-71
2021/10/12 00:19:27;;;;;;;2.33;1.20;;;;;;;8.63;84.58;100776.22;6391450;27;20403;-72
2021/10/12 00:22:31;;;;;;;1.20;1.20;;;;;;;8.71;83.80;100784.19;6392646;27;20303;-72
2021/10/12 00:25:36;;;;;;;1.30;1.30;;;;;;;8.69;83.78;100778.13;6392272;27;20287;-71
2021/10/12 00:28:41;;;;;;;3.35;1.27;;;;;;;8.75;84.22;100773.75;6392163;27;20244;-72
2021/10/12 00:31:45;;;;;;;1.27;1.27;;;;;;;8.64;84.49;100786.06;6391498;27;20252;-71
2021/10/12 00:34:49;;;;;;;1.10;1.10;;;;;;;8.62;83.75;100777.28;6390998;27;20496;-71
2021/10/12 00:37:54;;;;;;;1.33;1.30;;;;;;;8.63;82.68;100770.78;6391413;27;20260;-71
2021/10/12 00:40:59;;;;;;;1.38;1.38;;;;;;;8.62;83.19;100777.28;6391036;27;20236;-72
2021/10/12 00:44:06;;;;;;;1.17;1.08;;;;;;;8.63;82.90;100781.66;6392088;27;20249;-71
2021/10/12 00:47:11;;;;;;;1.05;1.05;;;;;;;8.61;82.19;100774.75;6391836;27;20280;-72
2021/10/12 00:50:16;;;;;;;1.02;1.02;;;;;;;8.56;82.75;100775.38;6390649;27;20502;-72
2021/10/12 00:53:20;;;;;;;0.85;0.85;;;;;;;8.60;82.36;100776.63;6391562;27;20185;-72
2021/10/12 00:56:24;;;;;;;2.50;1.15;;;;;;;8.55;82.18;100779.13;6391466;27;20189;-72
2021/10/12 00:59:31;;;;;;;1.23;1.15;;;;;;;8.70;82.11;100778.97;6390376;27;20243;-72
2021/10/12 01:02:35;;;;;;;0.93;0.93;;;;;;;8.67;81.90;100777.50;6391293;27;20214;-73
2021/10/12 01:05:40;;;;;;;1.52;0.80;;;;;;;8.47;81.17;100773.91;6391119;27;20231;-72
2021/10/12 01:08:45;;;;;;;1.85;0.90;;;;;;;8.65;81.98;100785.00;6391242;27;20181;-72
2021/10/12 01:11:49;;;;;;;0.85;0.85;;;;;;;8.74;81.05;100778.34;6391121;27;20260;-72
2021/10/12 01:14:56;;;;;;;0.80;0.80;;;;;;;8.81;81.01;100781.06;6390980;27;20252;-72
2021/10/12 01:18:01;;;;;;;1.50;1.10;;;;;;;8.78;80.02;100785.03;6390401;27;20189;-72
2021/10/12 01:21:07;;;;;;;0.90;0.90;;;;;;;8.60;79.97;100787.50;6390897;27;20188;-72
2021/10/12 01:24:12;;;;;;;3.20;1.08;;;;;;;8.72;81.17;100785.88;6391236;27;20209;-72
2021/10/12 01:27:21;;;;;;;0.90;0.90;;;;;;;8.74;80.37;100782.94;6390155;27;20189;-72
2021/10/12 01:30:25;;;;;;;0.85;0.85;;;;;;;8.64;79.66;100794.22;6389629;27;20414;-72
2021/10/12 01:33:29;;;;;;;1.10;1.10;;;;;;;8.37;80.89;100787.03;6390864;27;20223;-72
2021/10/12 01:36:35;;;;;;;2.05;0.93;;;;;;;8.20;81.85;100799.25;6390462;27;20244;-72
2021/10/12 01:39:39;;;;;;;1.00;1.00;;;;;;;8.13;82.09;100784.81;6389596;27;20188;-73
2021/10/12 01:42:43;;;;;;;1.00;1.00;;;;;;;8.30;82.31;100794.31;6390308;27;20272;-72
2021/10/12 01:45:47;;;;;;;0.90;0.90;;;;;;;8.42;81.44;100789.16;6390633;27;20181;-72
2021/10/12 01:48:53;;;;;;;1.25;0.88;;;;;;;8.40;81.59;100791.22;6390302;27;20251;-72
2021/10/12 01:51:58;;;;;;;0.82;0.82;;;;;;;8.34;82.05;100792.88;6390547;27;20258;-72
2021/10/12 01:55:03;;;;;;;0.80;0.80;;;;;;;8.41;81.68;100793.75;6390426;27;20226;-72
2021/10/12 01:58:07;;;;;;;1.08;1.08;;;;;;;8.30;81.90;100786.16;6389737;27;20245;-72
2021/10/12 02:01:19;;;;;;;0.90;0.90;;;;;;;8.25;82.11;100777.75;6388968;27;20354;-73
2021/10/12 02:04:24;;;;;;;0.90;0.90;;;;;;;8.10;82.40;100790.66;6390197;27;20213;-73
2021/10/12 02:07:29;;;;;;;1.02;0.90;;;;;;;8.22;82.22;100777.34;6388817;27;20205;-72
2021/10/12 02:10:33;;;;;;;1.05;0.93;;;;;;;8.31;82.45;100782.41;6389732;27;20227;-72
2021/10/12 02:13:38;;;;;;;0.90;0.90;;;;;;;8.38;81.50;100783.28;6389249;27;20186;-72
2021/10/12 02:16:42;;;;;;;1.63;0.90;;;;;;;8.27;82.20;100781.13;6388507;27;20355;-72
2021/10/12 02:19:46;;;;;;;1.05;0.65;;;;;;;8.09;82.52;100788.97;6388431;27;20181;-72
2021/10/12 02:22:52;;;;;;;0.80;0.80;;;;;;;8.33;81.93;100785.75;6389213;27;20212;-72
2021/10/12 02:25:56;;;;;;;3.22;0.90;;;;;;;8.01;83.21;100791.88;6389659;27;20185;-72
2021/10/12 02:29:00;;;;;;;0.80;0.80;;;;;;;8.09;83.37;100789.81;6388231;27;20575;-72
2021/10/12 02:32:04;;;;;;;0.80;0.80;;;;;;;8.17;83.45;100780.63;6388031;27;20181;-72
2021/10/12 02:35:10;;;;;;;0.80;0.80;;;;;;;8.10;83.14;100779.78;6389098;27;20189;-72
2021/10/12 02:38:16;;;;;;;0.90;0.90;;;;;;;8.17;83.46;100780.63;6388112;27;20385;-72
2021/10/12 02:41:20;;;;;;;0.70;0.70;;;;;;;7.97;83.08;100785.16;6389540;27;20264;-72
2021/10/12 02:44:24;;;;;;;0.75;0.75;;;;;;;8.02;82.94;100777.22;6388252;27;20209;-72
2021/10/12 02:47:28;;;;;;;0.80;0.80;;;;;;;8.01;82.69;100781.00;6388215;27;20264;-72
2021/10/12 02:50:32;;;;;;;0.73;0.73;;;;;;;8.07;82.13;100774.75;6389077;27;20281;-72
2021/10/12 02:53:38;;;;;;;0.75;0.75;;;;;;;8.18;81.63;100783.19;6389141;27;20213;-72
2021/10/12 02:56:42;;;;;;;0.70;0.70;;;;;;;8.23;80.85;100779.84;6388562;27;20182;-72
2021/10/12 02:59:46;;;;;;;1.38;0.82;;;;;;;8.13;81.25;100791.09;6388481;27;20188;-72
2021/10/12 03:02:51;;;;;;;0.88;0.88;;;;;;;7.97;80.99;100790.59;6387443;27;20449;-72
2021/10/12 03:05:55;;;;;;;0.95;0.90;;;;;;;8.01;80.46;100791.88;6387484;27;20499;-72
2021/10/12 03:09:00;;;;;;;0.70;0.70;;;;;;;8.15;80.60;100793.59;6387508;27;20496;-72
2021/10/12 03:12:06;;;;;;;1.15;0.80;;;;;;;8.13;80.53;100788.38;6387838;27;20188;-72
2021/10/12 03:15:11;;;;;;;0.70;0.70;;;;;;;8.09;79.74;100788.97;6388743;27;20186;-72
2021/10/12 03:18:16;;;;;;;0.80;0.80;;;;;;;8.23;80.06;100790.72;6388397;27;20189;-72
2021/10/12 03:21:21;;;;;;;0.77;0.77;;;;;;;8.16;79.72;100793.41;6387624;27;20188;-72
2021/10/12 03:24:27;;;;;;;0.70;0.70;;;;;;;8.15;79.64;100790.88;6386137;27;20575;-72
2021/10/12 03:27:31;;;;;;;0.75;0.70;;;;;;;7.79;79.83;100795.69;6388524;28;20249;-72
2021/10/12 03:30:35;;;;;;;0.60;0.60;;;;;;;8.00;79.42;100790.19;6388531;28;20181;-72
2021/10/12 03:33:39;;;;;;;0.70;0.65;;;;;;;7.70;80.50;100802.34;6387545;28;20208;-72
2021/10/12 03:36:43;;;;;;;0.70;0.70;;;;;;;7.68;80.64;100799.00;6384178;28;20417;-72
2021/10/12 03:39:49;;;;;;;1.10;0.73;;;;;;;7.69;80.46;100808.81;6373616;28;20440;-72
2021/10/12 03:42:53;;;;;;;0.60;0.60;;;;;;;7.82;80.97;100803.47;6387057;28;20189;-72
2021/10/12 03:45:57;;;;;;;1.75;0.63;;;;;;;7.81;80.00;100796.34;6388533;28;20249;-72
2021/10/12 03:49:01;;;;;;;0.80;0.80;;;;;;;7.78;80.09;100791.31;6388243;28;20212;-72
2021/10/12 03:52:06;;;;;;;0.88;0.73;;;;;;;7.80;79.77;100794.69;6387913;28;20189;-72
2021/10/12 03:55:12;;;;;;;0.60;0.60;;;;;;;7.87;79.24;100793.69;6386863;28;20374;-72
2021/10/12 03:58:17;;;;;;;2.08;0.70;;;;;;;7.70;80.03;100795.03;6388065;28;20182;-72
2021/10/12 04:01:21;;;;;;;1.58;0.80;;;;;;;7.65;79.90;100796.69;6387746;28;20189;-72
2021/10/12 04:04:25;;;;;;;0.75;0.75;;;;;;;7.75;79.92;100802.59;6388086;28;20206;-72
2021/10/12 04:07:29;;;;;;;0.82;0.82;;;;;;;7.42;80.73;100792.31;6388025;28;20213;-72
2021/10/12 04:10:35;;;;;;;0.70;0.70;;;;;;;7.57;80.74;100795.75;6387356;28;20182;-72
2021/10/12 04:13:40;;;;;;;0.70;0.70;;;;;;;7.58;80.57;100797.47;6386545;28;20230;-72
2021/10/12 04:16:44;;;;;;;0.63;0.63;;;;;;;7.17;81.29;100796.50;6387953;28;20213;-72
2021/10/12 04:19:48;;;;;;;2.08;0.57;;;;;;;7.28;81.31;100793.28;6387242;28;20185;-72
2021/10/12 04:22:52;;;;;;;0.77;0.77;;;;;;;7.21;81.51;100797.81;6387524;28;20188;-72
2021/10/12 04:25:58;;;;;;;2.03;0.70;;;;;;;6.96;82.82;100796.53;6386454;28;20209;-73
2021/10/12 04:29:02;;;;;;;4.87;0.80;;;;;;;7.15;82.29;100793.16;6387516;28;20192;-72
2021/10/12 04:32:10;;;;;;;1.23;0.80;;;;;;;7.19;82.71;100799.03;6387396;28;20186;-72
2021/10/12 04:35:14;;;;;;;0.77;0.70;;;;;;;7.11;82.33;100800.03;6388690;27;20190;-72
2021/10/12 04:38:18;;;;;;;0.70;0.70;;;;;;;7.18;82.37;100795.50;6392030;27;20239;-72
2021/10/12 04:41:24;;;;;;;2.00;0.80;;;;;;;7.39;81.60;100809.03;6390938;27;20347;-72
2021/10/12 04:44:29;;;;;;;1.70;0.80;;;;;;;7.17;82.03;100804.66;6391767;27;20312;-72
2021/10/12 04:47:35;;;;;;;2.63;1.00;;;;;;;7.20;81.94;100798.84;6390745;27;20375;-73
2021/10/12 04:50:39;;;;;;;1.75;0.80;;;;;;;7.05;81.98;100806.22;6390664;27;20236;-72
2021/10/12 04:53:48;;;;;;;0.70;0.70;;;;;;;7.17;82.23;100809.22;6391885;27;20185;-72
2021/10/12 04:56:54;;;;;;;1.70;0.80;;;;;;;7.22;81.83;100802.19;6391416;27;20213;-72
2021/10/12 04:59:58;;;;;;;0.82;0.82;;;;;;;7.22;81.91;100802.19;6390681;27;20431;-72
2021/10/12 05:03:02;;;;;;;0.70;0.70;;;;;;;7.00;82.71;100803.25;6391635;27;20189;-72
2021/10/12 05:06:07;;;;;;;0.80;0.80;;;;;;;7.17;81.86;100804.66;6391622;27;20213;-73
2021/10/12 05:09:11;;;;;;;0.97;0.70;;;;;;;7.19;81.71;100808.00;6391429;27;20181;-73
2021/10/12 05:12:17;;;;;;;0.60;0.60;;;;;;;7.25;81.83;100812.66;6390029;27;20238;-72
2021/10/12 05:15:24;;;;;;;0.97;0.70;;;;;;;7.23;81.91;100820.16;6390345;27;20197;-73
2021/10/12 05:18:32;;;;;;;1.00;1.00;;;;;;;7.26;82.32;100808.06;6391282;27;20181;-73
2021/10/12 05:21:36;;;;;;;0.80;0.80;;;;;;;7.31;82.12;100817.31;6391114;27;20213;-72
2021/10/12 05:24:40;;;;;;;0.80;0.80;;;;;;;7.32;81.45;100810.81;6389873;27;20528;-73
2021/10/12 05:27:46;;;;;;;0.60;0.60;;;;;;;7.38;81.60;100812.78;6389830;27;20182;-72
2021/10/12 05:30:50;;;;;;;1.60;0.90;;;;;;;7.46;80.88;100819.91;6390770;27;20192;-73
2021/10/12 05:33:54;;;;;;;0.70;0.70;;;;;;;7.45;80.65;100818.22;6390865;27;20357;-73
2021/10/12 05:36:59;;;;;;;0.70;0.70;;;;;;;7.32;81.49;100808.13;6390270;27;20197;-73
2021/10/12 05:40:04;;;;;;;4.22;1.33;;;;;;;7.22;82.04;100823.91;6390214;27;20248;-72
2021/10/12 05:43:11;;;;;;;2.55;0.70;;;;;;;7.19;82.07;100827.00;6389213;27;20186;-73
2021/10/12 05:46:16;;;;;;;3.20;0.80;;;;;;;7.23;82.16;100825.59;6389341;27;20217;-72
2021/10/12 05:49:20;;;;;;;0.60;0.60;;;;;;;7.38;82.16;100815.47;6388668;27;20274;-72
2021/10/12 05:52:25;;;;;;;0.93;0.90;;;;;;;7.32;82.00;100827.13;6390157;27;20186;-73
2021/10/12 05:55:35;;;;;;;0.80;0.80;;;;;;;7.50;81.61;100822.03;6390402;27;20217;-73
2021/10/12 05:58:43;;;;;;;2.05;0.80;;;;;;;7.57;81.77;100828.34;6388748;27;20475;-72
2021/10/12 06:01:48;;;;;;;0.90;0.90;;;;;;;7.50;81.39;100822.03;6389700;27;20245;-73
2021/10/12 06:04:53;;;;;;;0.90;0.90;;;;;;;7.70;81.06;100833.06;6389631;27;20213;-73
2021/10/12 06:07:57;;;;;;;0.80;0.80;;;;;;;7.80;81.15;100838.97;6388517;27;20537;-72
2021/10/12 06:11:03;;;;;;;0.80;0.80;;;;;;;7.70;81.12;100838.50;6389952;27;20189;-73
2021/10/12 06:14:08;;;;;;;0.68;0.68;;;;;;;7.83;80.73;100844.00;6389762;27;20219;-72
2021/10/12 06:17:14;;;;;;;0.80;0.80;;;;;;;7.86;80.70;100845.47;6388476;27;20404;-73
2021/10/12 06:20:18;;;;;;;0.93;0.85;;;;;;;7.83;80.24;100848.59;6389553;27;20248;-73
2021/10/12 06:23:24;;;;;;;2.17;1.05;;;;;;;7.80;80.42;100854.44;6389479;27;20181;-73
2021/10/12 06:26:28;;;;;;;5.57;0.95;;;;;;;7.65;81.17;100872.72;6388063;27;20205;-73
2021/10/12 06:29:34;;;;;;;0.80;0.80;;;;;;;7.61;81.42;100865.97;6388441;27;20181;-73
2021/10/12 06:32:38;;;;;;;0.90;0.90;;;;;;;7.83;81.08;100864.91;6388398;27;20238;-73
2021/10/12 06:35:43;;;;;;;0.90;0.90;;;;;;;7.85;81.26;100869.09;6388984;27;20186;-72
2021/10/12 06:38:47;;;;;;;0.70;0.70;;;;;;;7.98;80.72;100869.19;6388978;27;20219;-72
2021/10/12 06:41:51;;;;;;;1.83;0.90;;;;;;;8.02;80.77;100869.59;6387856;27;20420;-72
2021/10/12 06:44:57;;;;;;;1.08;0.90;;;;;;;8.06;79.94;100868.19;6388861;27;20215;-72
2021/10/12 06:48:01;;;;;;;1.30;0.88;;;;;;;8.02;80.53;100875.03;6389221;27;20260;-72
2021/10/12 06:51:06;;;;;;;0.68;0.68;;;;;;;8.08;80.62;100877.81;6388619;27;20189;-72
2021/10/12 06:54:23;;;;;;;1.27;0.95;;;;;;;8.09;80.37;100881.34;6387944;27;20268;-72
2021/10/12 06:57:27;;;;;;;0.80;0.80;;;;;;;7.81;81.54;100872.38;6388331;27;20230;-72
2021/10/12 07:00:32;;;;;;;1.00;1.00;;;;;;;7.99;81.29;100891.75;6387427;27;20499;-72
2021/10/12 07:03:36;;;;;;;1.10;1.00;;;;;;;8.08;80.59;100885.13;6389008;27;20181;-73
2021/10/12 07:06:41;;;;;;;7.20;0.93;;;;;;;8.21;80.41;100890.66;6387112;27;20528;-71
2021/10/12 07:09:45;;;;;;;2.30;0.70;;;;;;;8.18;80.87;100883.72;6387277;27;20478;-71
2021/10/12 07:12:54;;;;;;;0.80;0.80;;;;;;;8.19;80.74;100885.38;6388381;27;20185;-71
2021/10/12 07:16:00;;;;;;;2.15;0.80;;;;;;;8.13;80.56;100885.38;6388104;27;20192;-72
2021/10/12 07:19:04;;;;;;;0.80;0.80;;;;;;;8.22;81.03;100886.88;6388445;27;20213;-72
2021/10/12 07:22:09;;;;;;;0.80;0.80;;;;;;;8.16;80.91;100882.25;6387107;27;20471;-72
2021/10/12 07:25:13;;;;;;;1.83;0.90;;;;;;;8.32;80.73;100892.81;6387943;27;20186;-72
2021/10/12 07:28:18;;;;;;;1.65;0.80;;;;;;;8.40;80.70;100883.66;6387023;28;20181;-72
2021/10/12 07:31:24;;;;;;;0.90;0.90;;;;;;;8.42;80.23;100877.00;6387070;28;20473;-74
2021/10/12 07:34:28;;;;;;;2.72;0.85;;;;;;;8.46;80.42;100883.69;6388079;28;20185;-71
2021/10/12 07:37:34;;;;;;;3.20;1.00;;;;;;;8.43;80.66;100884.09;6370645;28;20310;-71
2021/10/12 07:40:39;;;;;;;0.90;0.90;;;;;;;8.62;79.83;100877.91;6371625;28;20225;-72
2021/10/12 07:43:44;;;;;;;1.35;0.70;;;;;;;8.52;80.10;100887.50;6386890;28;20220;-72
2021/10/12 07:46:49;;;;;;;0.80;0.80;;;;;;;8.48;80.15;100881.59;6386695;28;20521;-71
2021/10/12 07:49:54;;;;;;;2.58;0.80;;;;;;;8.64;80.59;100891.31;6386834;28;20181;-71
2021/10/12 07:52:58;;;;;;;2.22;0.80;;;;;;;8.72;80.06;100883.81;6386801;28;20240;-72
2021/10/12 07:56:05;;;;;;;0.70;0.70;;;;;;;8.64;79.48;100886.69;6388105;28;20218;-71
2021/10/12 07:59:12;;;;;;;0.88;0.88;;;;;;;8.64;80.13;100894.88;6388018;28;20188;-71
2021/10/12 08:02:17;;;;;;;1.65;0.73;;;;;;;8.56;80.74;100900.47;6387871;28;20182;-71
2021/10/12 08:05:22;;;;;;;0.90;0.90;;;;;;;8.62;79.84;100894.22;6386495;28;20204;-71
2021/10/12 08:08:27;;;;;;;0.98;0.85;;;;;;;8.74;80.05;100889.88;6386956;28;20182;-71
2021/10/12 08:11:31;;;;;;;2.22;0.95;;;;;;;8.77;79.60;100897.63;6391061;27;20256;-71
2021/10/12 08:14:38;;;;;;;0.82;0.82;;;;;;;8.81;79.88;100887.16;6391407;27;20344;-72
2021/10/12 08:17:44;;;;;;;1.15;1.00;;;;;;;8.84;79.49;100897.66;6391599;27;20196;-72
2021/10/12 08:20:48;;;;;;;1.08;1.08;;;;;;;8.81;79.94;100890.72;6391307;27;20629;-71
2021/10/12 08:23:54;;;;;;;2.40;1.00;;;;;;;8.93;79.83;100890.16;6391188;27;20500;-72
2021/10/12 08:26:59;;;;;;;4.15;1.20;;;;;;;8.99;79.55;100889.34;6391982;27;20245;-73
2021/10/12 08:30:04;;;;;;;1.10;1.02;;;;;;;9.02;78.77;100880.75;6391056;27;20177;-72
2021/10/12 08:33:14;;;;;;;5.15;0.98;;;;;;;9.02;79.59;100895.19;6392397;27;20182;-72
2021/10/12 08:36:18;;;;;;;1.02;0.90;;;;;;;9.18;79.58;100894.81;6392006;27;20185;-72
2021/10/12 08:39:42;;;;;;;2.17;0.80;;;;;;;9.14;79.55;100903.63;6391594;27;20185;-72
2021/10/12 08:42:48;;;;;;;1.42;0.90;;;;;;;9.16;80.59;100915.13;6390869;27;20489;-72
2021/10/12 08:45:53;;;;;;;1.53;1.00;;;;;;;9.17;79.98;100897.72;6373250;27;20233;-72
2021/10/12 08:49:00;;;;;;;1.77;1.00;;;;;;;9.20;80.14;100910.94;6392065;27;20185;-72
2021/10/12 08:52:05;;;;;;;3.60;0.98;;;;;;;9.21;80.82;100918.91;6391982;27;20181;-73
2021/10/12 08:55:09;;;;;;;1.00;1.00;;;;;;;9.25;80.28;100916.59;6390529;27;20489;-73
2021/10/12 08:58:13;;;;;;;1.50;1.05;;;;;;;9.35;79.61;100917.03;6390384;27;20186;-73
2021/10/12 09:01:18;;;;;;;0.85;0.85;;;;;;;9.39;79.24;100923.75;6391613;27;20234;-72
2021/10/12 09:04:23;;;;;;;1.08;1.00;;;;;;;9.33;78.86;100919.13;6390873;27;20277;-71
2021/10/12 09:07:29;;;;;;;1.27;0.90;;;;;;;9.37;78.75;100912.25;6391448;27;20212;-72
2021/10/12 09:10:34;;;;;;;0.88;0.88;;;;;;;9.50;78.13;100904.06;6391449;27;20181;-72
2021/10/12 09:13:45;;;;;;;0.80;0.80;;;;;;;9.52;78.47;100904.72;6390087;27;20186;-72
2021/10/12 09:16:49;;;;;;;0.90;0.90;;;;;;;9.57;78.98;100902.19;6391218;27;20185;-72
2021/10/12 09:19:55;;;;;;;1.73;0.90;;;;;;;9.58;77.76;100901.13;6390006;27;20468;-73
2021/10/12 09:23:11;;;;;;;0.90;0.90;;;;;;;9.69;77.76;100914.13;6390093;27;20189;-72
2021/10/12 09:26:20;;;;;;;1.20;1.10;;;;;;;9.64;77.85;100911.22;6391071;27;20186;-72
2021/10/12 09:29:28;;;;;;;3.50;1.08;;;;;;;9.63;77.80;100909.53;6390664;27;20182;-72
2021/10/12 09:32:38;;;;;;;3.85;1.08;;;;;;;9.69;76.94;100925.03;6390586;27;20181;-72
2021/10/12 09:35:43;;;;;;;0.90;0.90;;;;;;;9.68;77.50;100915.19;6389567;27;20344;-72
2021/10/12 09:38:48;;;;;;;0.82;0.82;;;;;;;9.76;76.61;100908.69;6390048;27;20430;-72
2021/10/12 09:41:57;;;;;;;1.10;1.10;;;;;;;9.79;75.95;100911.84;6389910;27;20220;-72
2021/10/12 09:45:01;;;;;;;0.85;0.85;;;;;;;9.75;75.75;100907.88;6390210;27;20203;-71
2021/10/12 09:48:30;;;;;;;1.10;1.00;;;;;;;9.72;75.67;100918.34;6390054;27;20268;-71
2021/10/12 09:51:35;;;;;;;0.90;0.90;;;;;;;9.79;74.97;100920.00;6389000;27;20181;-72
2021/10/12 09:54:46;;;;;;;1.00;1.00;;;;;;;10.00;74.92;100917.06;6388889;27;20371;-74
2021/10/12 09:57:51;;;;;;;1.40;1.20;;;;;;;9.92;75.20;100914.56;6390032;27;20189;-73
2021/10/12 10:00:58;;;;;;;3.50;1.05;;;;;;;9.96;75.52;100931.34;6390305;27;20185;-72
2021/10/12 10:04:02;;;;;;;0.70;0.70;;;;;;;10.03;74.16;100938.47;6388692;27;20347;-73
2021/10/12 10:07:18;;;;;;;0.77;0.77;;;;;;;9.82;74.70;100929.66;6389986;27;20209;-73
2021/10/12 10:10:22;;;;;;;1.02;1.02;;;;;;;9.84;74.75;100939.28;6390007;27;20224;-72
2021/10/12 10:13:28;;;;;;;1.10;1.10;;;;;;;9.87;73.75;100948.94;6389855;27;20181;-72
2021/10/12 10:16:33;;;;;;;1.00;1.00;;;;;;;9.98;74.28;100940.13;6389298;27;20182;-72
2021/10/12 10:19:42;;;;;;;1.08;1.08;;;;;;;9.93;74.17;100938.03;6389346;27;20185;-73
2021/10/12 10:22:50;;;;;;;1.10;1.10;;;;;;;9.86;74.10;100937.19;6388243;27;20401;-73
2021/10/12 10:25:54;;;;;;;2.00;1.38;;;;;;;9.86;73.80;100948.09;6389186;27;20182;-73
2021/10/12 10:29:23;;;;;;;1.17;1.17;;;;;;;9.76;73.59;100947.66;6388009;27;20209;-73
2021/10/12 10:32:48;;;;;;;1.20;1.15;;;;;;;9.84;73.94;100943.91;6388094;27;20217;-73
2021/10/12 10:35:57;;;;;;;1.40;0.90;;;;;;;9.89;74.13;100942.22;6389438;27;20264;-73
2021/10/12 10:39:03;;;;;;;1.27;1.27;;;;;;;10.09;73.48;100951.22;6388828;27;20205;-73
2021/10/12 10:42:09;;;;;;;1.88;1.10;;;;;;;10.05;73.16;100949.97;6388897;27;20298;-72
2021/10/12 10:45:13;;;;;;;1.00;1.00;;;;;;;10.24;73.78;100936.56;6388905;27;20263;-73
2021/10/12 10:48:20;;;;;;;1.48;1.00;;;;;;;10.40;72.77;100947.03;6387851;27;20563;-71
2021/10/12 10:51:59;;;;;;;3.20;1.10;;;;;;;10.44;71.32;100940.09;6387621;27;20512;-71
2021/10/12 10:55:10;;;;;;;0.88;0.88;;;;;;;10.49;70.99;100946.59;6387482;27;20182;-71
2021/10/12 10:58:17;;;;;;;0.75;0.75;;;;;;;10.49;70.80;100953.94;6388767;27;20186;-71
2021/10/12 11:01:36;;;;;;;0.93;0.93;;;;;;;10.45;70.84;100952.69;6388883;27;20188;-72
2021/10/12 11:04:46;;;;;;;3.60;1.00;;;;;;;10.57;70.42;100953.69;6387732;27;20488;-73
2021/10/12 11:08:07;;;;;;;0.80;0.80;;;;;;;10.50;69.53;100955.63;6387413;27;20206;-72
2021/10/12 11:11:15;;;;;;;3.63;0.80;;;;;;;10.52;70.35;100964.41;6387424;27;20190;-72
2021/10/12 11:14:29;;;;;;;0.80;0.80;;;;;;;10.31;70.41;100959.22;6388011;27;20181;-72
2021/10/12 11:17:35;;;;;;;1.35;0.90;;;;;;;10.50;70.51;100958.34;6387164;27;20492;-73
2021/10/12 11:20:42;;;;;;;2.33;0.90;;;;;;;10.52;70.11;100964.41;6388190;27;20219;-73
2021/10/12 11:23:50;;;;;;;1.00;1.00;;;;;;;10.61;69.04;100963.97;6387118;27;20203;-73
2021/10/12 11:26:59;;;;;;;3.63;1.00;;;;;;;10.65;69.52;100964.38;6388484;27;20189;-72
2021/10/12 11:30:06;;;;;;;3.03;0.90;;;;;;;10.64;68.92;100962.69;6369798;28;20249;-72
2021/10/12 11:33:13;;;;;;;0.90;0.90;;;;;;;10.51;69.19;100968.19;6388032;28;20189;-72
2021/10/12 11:36:19;;;;;;;1.27;0.90;;;;;;;10.65;69.71;100967.13;6387128;28;20318;-72
2021/10/12 11:39:24;;;;;;;1.13;0.93;;;;;;;10.64;69.23;100969.00;6386929;28;20246;-72
2021/10/12 11:42:31;;;;;;;0.80;0.80;;;;;;;10.70;69.15;100967.31;6386874;28;20319;-72
2021/10/12 11:45:35;;;;;;;0.80;0.80;;;;;;;10.78;69.11;100967.06;6389685;27;20181;-72
2021/10/12 11:48:40;;;;;;;0.68;0.65;;;;;;;10.82;68.07;100976.50;6393435;27;20213;-72
2021/10/12 11:51:45;;;;;;;0.95;0.88;;;;;;;10.77;67.18;100962.66;6391915;27;20541;-71
2021/10/12 11:54:49;;;;;;;0.95;0.95;;;;;;;10.81;67.04;100969.34;6391909;27;20377;-70
2021/10/12 11:58:09;;;;;;;1.10;1.10;;;;;;;10.80;67.09;100964.97;6391843;27;20491;-71
2021/10/12 12:01:17;;;;;;;0.77;0.77;;;;;;;10.85;67.17;100965.16;6391654;27;20550;-72
2021/10/12 12:04:29;;;;;;;0.70;0.70;;;;;;;10.94;67.58;100957.56;6393032;27;20258;-72
2021/10/12 12:07:38;;;;;;;0.93;0.90;;;;;;;10.99;67.56;100961.31;6391576;27;20181;-71
2021/10/12 12:10:43;;;;;;;2.13;1.20;;;;;;;10.92;67.13;100965.97;6392376;27;20341;-71
2021/10/12 12:13:51;;;;;;;0.98;0.98;;;;;;;10.93;68.31;100967.66;6392516;27;20182;-71
2021/10/12 12:17:07;;;;;;;0.90;0.90;;;;;;;10.83;67.49;100961.81;6391425;27;20417;-72
2021/10/12 12:20:13;;;;;;;2.92;0.80;;;;;;;10.81;67.87;100979.44;6391437;27;20261;-72
2021/10/12 12:23:33;;;;;;;3.63;0.80;;;;;;;10.65;67.86;100986.22;6392192;27;20182;-71
2021/10/12 12:26:37;;;;;;;1.33;0.63;;;;;;;10.62;68.10;100983.91;6392484;27;20220;-71
2021/10/12 12:29:43;;;;;;;2.20;0.93;;;;;;;10.72;67.98;100970.66;6391072;27;20528;-72
2021/10/12 12:32:57;;;;;;;0.60;0.60;;;;;;;10.71;66.10;100968.97;6392304;27;20204;-71
2021/10/12 12:36:04;;;;;;;0.70;0.70;;;;;;;10.75;65.78;100975.69;6391584;27;20217;-72
2021/10/12 12:39:10;;;;;;;0.73;0.73;;;;;;;10.83;65.42;100989.09;6392144;27;20201;-71
2021/10/12 12:42:30;;;;;;;3.78;0.90;;;;;;;10.96;66.28;100983.59;6389248;27;20245;-72
2021/10/12 12:45:36;;;;;;;0.90;0.90;;;;;;;10.86;64.85;100988.66;6389587;28;20227;-72
2021/10/12 12:48:42;;;;;;;0.70;0.70;;;;;;;10.94;64.56;100991.13;6390114;28;20230;-72
2021/10/12 12:51:46;;;;;;;1.77;0.82;;;;;;;10.94;65.12;100991.13;6390060;28;20181;-71
2021/10/12 12:54:54;;;;;;;0.70;0.70;;;;;;;10.81;63.94;100996.63;6389689;28;20182;-71
2021/10/12 12:57:58;;;;;;;1.05;0.90;;;;;;;10.79;65.02;100993.28;6389609;27;20181;-71
2021/10/12 13:01:04;;;;;;;2.60;0.90;;;;;;;10.79;64.89;100987.84;6390194;28;20268;-71
2021/10/12 13:04:10;;;;;;;3.50;1.15;;;;;;;10.77;64.80;100998.13;6389855;28;20181;-72
2021/10/12 13:07:15;;;;;;;1.05;0.80;;;;;;;10.91;65.31;100991.59;6390104;28;20188;-72
2021/10/12 13:10:19;;;;;;;0.77;0.77;;;;;;;10.85;65.33;101003.38;6388752;28;20580;-72
2021/10/12 13:13:23;;;;;;;0.90;0.90;;;;;;;10.81;64.92;101002.09;6389936;28;20189;-72
2021/10/12 13:16:29;;;;;;;4.75;0.70;;;;;;;10.83;65.07;101004.63;6388922;28;20185;-72
2021/10/12 13:19:33;;;;;;;0.85;0.85;;;;;;;10.80;65.82;101015.97;6389873;28;20261;-72
2021/10/12 13:22:38;;;;;;;1.40;0.80;;;;;;;10.72;66.35;101018.94;6388518;28;20557;-72
2021/10/12 13:25:42;;;;;;;0.70;0.70;;;;;;;10.76;66.35;101010.09;6389766;28;20227;-72
2021/10/12 13:28:48;;;;;;;1.35;0.75;;;;;;;10.75;65.90;101016.63;6389718;28;20295;-72
2021/10/12 13:31:54;;;;;;;0.80;0.80;;;;;;;10.88;65.85;101013.88;6389618;28;20217;-71
2021/10/12 13:34:58;;;;;;;1.48;0.90;;;;;;;10.81;65.97;101018.47;6388300;28;20496;-71
2021/10/12 13:38:02;;;;;;;0.70;0.70;;;;;;;10.77;65.68;101022.69;6388517;28;20390;-71
2021/10/12 13:41:07;;;;;;;1.13;1.13;;;;;;;10.74;65.87;101025.00;6349457;27;1122181;-71
2021/10/12 13:44:11;;;;;;;0.90;0.90;;;;;;;10.78;66.12;101029.84;6389302;27;20181;-71
2021/10/12 13:47:18;;;;;;;1.00;1.00;;;;;;;10.74;66.51;101028.56;6389141;27;20509;-72
2021/10/12 13:50:24;;;;;;;1.00;1.00;;;;;;;10.62;67.26;101042.06;6389911;27;20274;-71
2021/10/12 13:53:28;;;;;;;1.23;1.23;;;;;;;10.62;67.13;101033.88;6390371;27;20188;-72
2021/10/12 13:56:32;;;;;;;3.95;1.25;;;;;;;10.68;68.06;101043.09;6389918;27;20188;-71
2021/10/12 13:59:36;;;;;;;1.38;1.13;;;;;;;10.61;67.69;101036.78;6390133;27;20185;-72
2021/10/12 14:02:42;;;;;;;0.80;0.80;;;;;;;10.61;67.40;101045.81;6390093;27;20249;-72
2021/10/12 14:05:46;;;;;;;1.83;0.90;;;;;;;10.64;66.95;101039.09;6389358;27;20213;-72
2021/10/12 14:08:50;;;;;;;1.05;0.88;;;;;;;10.61;66.54;101053.16;6388823;27;20218;-72
2021/10/12 14:11:54;;;;;;;0.80;0.80;;;;;;;10.61;65.95;101051.28;6388323;27;20217;-72
2021/10/12 14:14:59;;;;;;;0.65;0.65;;;;;;;10.54;67.31;101049.59;6388222;27;20433;-71
2021/10/12 14:18:05;;;;;;;0.90;0.90;;;;;;;10.50;66.68;101059.28;6388305;27;20551;-72
2021/10/12 14:21:12;;;;;;;1.17;1.10;;;;;;;10.40;66.22;101058.88;6388203;27;20476;-71
2021/10/12 14:24:16;;;;;;;0.73;0.73;;;;;;;10.27;65.12;101058.88;6388064;27;20406;-72
2021/10/12 14:27:20;;;;;;;1.10;0.80;;;;;;;10.44;65.82;101060.09;6389078;27;20216;-72
2021/10/12 14:30:24;;;;;;;1.20;1.20;;;;;;;10.35;64.58;101066.84;6387988;27;20532;-72
2021/10/12 14:33:31;;;;;;;0.60;0.60;;;;;;;10.25;64.21;101077.28;6387891;27;20378;-72